createdAt,value
2023-02-25T00:01:39.694Z,99218.75
2023-02-25T00:04:06.914Z,99218.34
2023-02-25T00:06:33.786Z,99214.72
2023-02-25T00:09:01.057Z,99212.63
2023-02-25T00:11:28.361Z,99221.97
2023-02-25T00:13:55.448Z,99229.91
2023-02-25T00:16:25.339Z,99229.13
2023-02-25T00:18:57.756Z,99222.31
2023-02-25T00:21:25.988Z,99206.88
2023-02-25T00:23:58.301Z,99211.91
2023-02-25T00:26:27.085Z,99206.56
2023-02-25T00:28:54.088Z,99214.25
2023-02-25T00:31:24.053Z,99208.19
2023-02-25T00:33:52.525Z,99209.47
2023-02-25T00:36:23.857Z,99210.03
2023-02-25T00:38:54.891Z,99201.84
2023-02-25T00:41:26.910Z,99194.84
2023-02-25T00:44:03.484Z,99187.84
2023-02-25T00:46:32.289Z,99198.25
2023-02-25T00:49:00.288Z,99189.72
2023-02-25T00:51:32.774Z,99189.22
2023-02-25T00:53:59.794Z,99200.84
2023-02-25T00:56:27.381Z,99201.53
2023-02-25T00:58:54.934Z,99208.06
2023-02-25T01:01:31.642Z,99215.94
2023-02-25T01:03:59.699Z,99227.25
2023-02-25T01:06:29.524Z,99235.13
2023-02-25T01:08:58.980Z,99235.28
2023-02-25T01:11:32.865Z,99243.84
2023-02-25T01:14:07.533Z,99245.47
2023-02-25T01:16:35.964Z,99250.56
2023-02-25T01:19:07.487Z,99259.81
2023-02-25T01:21:40.973Z,99262.19
2023-02-25T01:24:16.282Z,99270.84
2023-02-25T01:26:46.087Z,99269.06
2023-02-25T01:29:21.124Z,99264.00
2023-02-25T01:31:48.720Z,99260.03
2023-02-25T01:34:18.073Z,99265.44
2023-02-25T01:36:46.064Z,99267.34
2023-02-25T01:39:15.145Z,99266.75
2023-02-25T01:41:43.287Z,99269.59
2023-02-25T01:44:14.810Z,99264.56
2023-02-25T01:46:45.203Z,99269.22
2023-02-25T01:49:20.775Z,99282.69
2023-02-25T01:51:52.105Z,99282.72
2023-02-25T01:54:20.524Z,99287.66
2023-02-25T01:56:53.096Z,99290.97
2023-02-25T01:59:24.150Z,99289.56
2023-02-25T02:01:51.492Z,99289.13
2023-02-25T02:04:20.920Z,99273.13
2023-02-25T02:06:49.992Z,99278.97
2023-02-25T02:09:24.543Z,99275.69
2023-02-25T02:11:51.667Z,99272.06
2023-02-25T02:14:23.578Z,99268.81
2023-02-25T02:17:05.994Z,99282.22
2023-02-25T02:19:47.749Z,99271.13
2023-02-25T02:22:28.964Z,99277.63
2023-02-25T02:25:23.498Z,99295.72
2023-02-25T02:28:05.331Z,99305.31
2023-02-25T02:31:09.855Z,99327.00
2023-02-25T02:33:55.191Z,99339.16
2023-02-25T02:36:49.777Z,99349.50
2023-02-25T02:39:47.349Z,99352.69
2023-02-25T02:42:14.249Z,99345.78
2023-02-25T02:45:05.280Z,99319.00
2023-02-25T02:47:40.398Z,99317.16
2023-02-25T02:50:18.855Z,99306.53
2023-02-25T02:52:52.375Z,99301.22
2023-02-25T02:55:28.413Z,99297.03
2023-02-25T02:58:01.665Z,99298.00
2023-02-25T03:00:38.032Z,99298.13
2023-02-25T03:03:17.995Z,99311.69
2023-02-25T03:05:50.239Z,99305.03
2023-02-25T03:08:27.381Z,99306.69
2023-02-25T03:10:55.454Z,99294.22
2023-02-25T03:13:22.577Z,99292.28
2023-02-25T03:15:52.001Z,99294.72
2023-02-25T03:18:34.733Z,99284.09
2023-02-25T03:21:10.018Z,99300.34
2023-02-25T03:23:41.409Z,99314.00
2023-02-25T03:26:22.370Z,99310.44
2023-02-25T03:28:49.542Z,99307.16
2023-02-25T03:31:36.576Z,99317.72
2023-02-25T03:34:08.850Z,99313.25
2023-02-25T03:36:44.055Z,99313.59
2023-02-25T03:39:21.889Z,99321.00
2023-02-25T03:41:55.767Z,99321.00
2023-02-25T03:44:36.299Z,99323.75
2023-02-25T03:47:06.033Z,99320.63
2023-02-25T03:49:45.430Z,99317.78
2023-02-25T03:52:18.132Z,99319.84
2023-02-25T03:54:51.218Z,99317.66
2023-02-25T03:57:19.381Z,99317.72
2023-02-25T03:59:46.496Z,99335.06
2023-02-25T04:02:15.526Z,99339.88
2023-02-25T04:04:42.564Z,99347.22
2023-02-25T04:07:09.607Z,99343.59
2023-02-25T04:09:36.502Z,99341.91
2023-02-25T04:12:03.694Z,99347.19
2023-02-25T04:14:30.591Z,99355.38
2023-02-25T04:16:57.483Z,99348.16
2023-02-25T04:19:24.533Z,99354.69
2023-02-25T04:21:51.520Z,99366.91
2023-02-25T04:24:18.506Z,99367.47
2023-02-25T04:26:45.436Z,99368.59
2023-02-25T04:29:12.367Z,99366.63
2023-02-25T04:31:41.553Z,99363.03
2023-02-25T04:34:08.634Z,99355.38
2023-02-25T04:36:36.433Z,99349.22
2023-02-25T04:39:06.029Z,99339.56
2023-02-25T04:41:35.793Z,99345.13
2023-02-25T04:44:04.331Z,99339.75
2023-02-25T04:46:42.099Z,99335.63
2023-02-25T04:49:09.934Z,99334.00
2023-02-25T04:51:38.863Z,99336.41
2023-02-25T04:54:06.601Z,99333.81
2023-02-25T04:56:33.549Z,99331.78
2023-02-25T04:59:01.606Z,99330.56
2023-02-25T05:01:32.324Z,99335.19
2023-02-25T05:04:00.710Z,99339.09
2023-02-25T05:06:28.709Z,99334.81
2023-02-25T05:09:00.201Z,99335.63
2023-02-25T05:11:28.876Z,99340.19
2023-02-25T05:13:57.207Z,99330.97
2023-02-25T05:16:25.712Z,99338.28
2023-02-25T05:18:53.207Z,99322.28
2023-02-25T05:21:24.252Z,99334.47
2023-02-25T05:23:53.501Z,99334.34
2023-02-25T05:26:30.420Z,99323.94
2023-02-25T05:28:59.374Z,99316.91
2023-02-25T05:31:27.377Z,99316.66
2023-02-25T05:33:54.693Z,99314.63
2023-02-25T05:36:22.691Z,99317.72
2023-02-25T05:38:54.884Z,99307.72
2023-02-25T05:41:22.140Z,99305.84
2023-02-25T05:43:49.081Z,99306.91
2023-02-25T05:46:16.086Z,99304.91
2023-02-25T05:48:47.205Z,99296.66
2023-02-25T05:51:19.043Z,99297.16
2023-02-25T05:53:47.932Z,99295.13
2023-02-25T05:56:21.273Z,99301.22
2023-02-25T05:58:49.572Z,99309.91
2023-02-25T06:01:24.547Z,99318.34
2023-02-25T06:03:52.466Z,99315.63
2023-02-25T06:06:24.622Z,99331.09
2023-02-25T06:08:52.845Z,99336.25
2023-02-25T06:11:24.498Z,99340.75
2023-02-25T06:13:53.546Z,99328.41
2023-02-25T06:16:21.633Z,99324.59
2023-02-25T06:18:51.372Z,99324.72
2023-02-25T06:21:18.892Z,99329.34
2023-02-25T06:23:45.853Z,99327.41
2023-02-25T06:26:14.673Z,99321.88
2023-02-25T06:28:42.253Z,99327.28
2023-02-25T06:31:11.785Z,99325.13
2023-02-25T06:33:39.302Z,99339.38
2023-02-25T06:36:08.329Z,99340.31
2023-02-25T06:38:35.764Z,99344.66
2023-02-25T06:41:14.227Z,99345.47
2023-02-25T06:43:42.288Z,99350.91
2023-02-25T06:46:12.610Z,99362.44
2023-02-25T06:48:40.286Z,99356.47
2023-02-25T06:51:09.510Z,99362.56
2023-02-25T06:53:38.621Z,99376.81
2023-02-25T06:56:08.226Z,99394.31
2023-02-25T06:58:40.738Z,99389.84
2023-02-25T07:01:14.393Z,99371.69
2023-02-25T07:03:43.531Z,99383.47
2023-02-25T07:06:10.888Z,99377.13
2023-02-25T07:08:38.098Z,99386.78
2023-02-25T07:11:15.494Z,99394.13
2023-02-25T07:13:43.366Z,99390.31
2023-02-25T07:16:15.084Z,99391.94
2023-02-25T07:18:43.077Z,99391.41
2023-02-25T07:21:12.430Z,99389.28
2023-02-25T07:23:39.748Z,99382.22
2023-02-25T07:26:09.297Z,99374.59
2023-02-25T07:28:37.414Z,99371.44
2023-02-25T07:31:13.945Z,99367.25
2023-02-25T07:33:41.899Z,99361.13
2023-02-25T07:36:10.382Z,99359.94
2023-02-25T07:38:38.700Z,99365.09
2023-02-25T07:41:08.666Z,99360.34
2023-02-25T07:43:36.125Z,99361.16
2023-02-25T07:46:03.630Z,99357.50
2023-02-25T07:48:31.392Z,99355.59
2023-02-25T07:51:07.583Z,99348.75
2023-02-25T07:53:34.790Z,99348.38
2023-02-25T07:56:01.925Z,99340.34
2023-02-25T07:58:29.391Z,99335.31
2023-02-25T08:00:56.387Z,99339.13
2023-02-25T08:03:23.733Z,99341.97
2023-02-25T08:05:52.042Z,99345.50
2023-02-25T08:08:18.929Z,99343.34
2023-02-25T08:10:45.905Z,99351.09
2023-02-25T08:13:14.333Z,99355.97
2023-02-25T08:15:45.440Z,99350.09
2023-02-25T08:18:12.545Z,99356.25
2023-02-25T08:20:39.486Z,99351.47
2023-02-25T08:23:06.460Z,99354.19
2023-02-25T08:25:33.344Z,99351.19
2023-02-25T08:28:01.727Z,99340.84
2023-02-25T08:30:29.746Z,99346.59
2023-02-25T08:32:57.479Z,99347.63
2023-02-25T08:35:26.333Z,99343.28
2023-02-25T08:37:53.831Z,99350.59
2023-02-25T08:40:21.558Z,99345.34
2023-02-25T08:42:48.606Z,99338.84
2023-02-25T08:45:16.578Z,99334.94
2023-02-25T08:47:43.452Z,99335.38
2023-02-25T08:50:11.284Z,99342.66
2023-02-25T08:52:39.586Z,99337.78
2023-02-25T08:55:08.663Z,99342.03
2023-02-25T08:57:36.659Z,99340.72
2023-02-25T09:00:06.701Z,99341.53
2023-02-25T09:02:33.568Z,99342.69
2023-02-25T09:05:00.531Z,99340.88
2023-02-25T09:07:27.557Z,99340.59
2023-02-25T09:09:54.556Z,99330.25
2023-02-25T09:12:24.238Z,99332.72
2023-02-25T09:14:51.697Z,99328.84
2023-02-25T09:17:18.767Z,99338.03
2023-02-25T09:19:46.743Z,99326.88
2023-02-25T09:22:13.610Z,99326.88
2023-02-25T09:24:40.731Z,99321.34
2023-02-25T09:27:08.218Z,99317.69
2023-02-25T09:29:39.982Z,99313.66
2023-02-25T09:32:08.358Z,99318.81
2023-02-25T09:34:35.386Z,99315.91
2023-02-25T09:37:06.105Z,99323.09
2023-02-25T09:39:33.018Z,99308.75
2023-02-25T09:42:10.592Z,99316.41
2023-02-25T09:44:47.733Z,99311.22
2023-02-25T09:47:42.739Z,99312.44
2023-02-25T09:50:22.348Z,99309.22
2023-02-25T09:53:07.498Z,99310.59
2023-02-25T09:55:41.178Z,99305.88
2023-02-25T09:58:41.951Z,99302.66
2023-02-25T10:01:34.319Z,99305.97
2023-02-25T10:04:16.280Z,99305.41
2023-02-25T10:06:48.127Z,99312.63
2023-02-25T10:09:47.994Z,99316.84
2023-02-25T10:12:56.834Z,99315.22
2023-02-25T10:15:35.378Z,99320.47
2023-02-25T10:18:26.333Z,99319.47
2023-02-25T10:20:53.250Z,99318.59
2023-02-25T10:23:48.332Z,99317.63
2023-02-25T10:26:29.195Z,99319.47
2023-02-25T10:29:08.187Z,99320.84
2023-02-25T10:31:35.976Z,99318.44
2023-02-25T10:34:27.957Z,99316.31
2023-02-25T10:36:58.905Z,99322.22
2023-02-25T10:39:27.991Z,99328.00
2023-02-25T10:41:55.254Z,99347.03
2023-02-25T10:44:22.331Z,99357.59
2023-02-25T10:47:05.032Z,99368.88
2023-02-25T10:49:38.216Z,99377.63
2023-02-25T10:52:17.674Z,99367.75
2023-02-25T10:54:54.615Z,99359.53
2023-02-25T10:57:29.122Z,99368.41
2023-02-25T11:00:13.207Z,99370.06
2023-02-25T11:02:44.119Z,99380.38
2023-02-25T11:05:37.982Z,99388.78
2023-02-25T11:08:07.845Z,99415.31
2023-02-25T11:10:35.192Z,99432.34
2023-02-25T11:13:03.575Z,99431.66
2023-02-25T11:15:45.818Z,99435.41
2023-02-25T11:18:29.652Z,99450.75
2023-02-25T11:21:03.916Z,99454.31
2023-02-25T11:23:40.302Z,99459.53
2023-02-25T11:26:08.801Z,99456.56
2023-02-25T11:28:44.143Z,99454.69
2023-02-25T11:31:26.749Z,99455.97
2023-02-25T11:33:59.586Z,99442.09
2023-02-25T11:36:36.595Z,99431.38
2023-02-25T11:39:30.649Z,99424.72
2023-02-25T11:42:05.663Z,99404.69
2023-02-25T11:44:45.417Z,99400.00
2023-02-25T11:47:26.282Z,99397.78
2023-02-25T11:50:20.087Z,99390.50
2023-02-25T11:52:54.741Z,99397.06
2023-02-25T11:56:15.328Z,99384.22
2023-02-25T11:59:13.385Z,99365.47
2023-02-25T12:02:02.100Z,99354.13
2023-02-25T12:05:05.169Z,99362.94
2023-02-25T12:08:12.417Z,99362.38
2023-02-25T12:10:55.754Z,99361.47
2023-02-25T12:14:07.624Z,99358.00
2023-02-25T12:16:46.348Z,99355.13
2023-02-25T12:19:37.313Z,99346.84
2023-02-25T12:23:06.553Z,99344.47
2023-02-25T12:25:56.588Z,99349.94
2023-02-25T12:28:45.481Z,99349.22
2023-02-25T12:31:33.700Z,99348.47
2023-02-25T12:34:38.211Z,99344.13
2023-02-25T12:37:19.626Z,99341.53
2023-02-25T12:40:00.508Z,99345.59
2023-02-25T12:42:43.994Z,99345.66
2023-02-25T12:45:49.059Z,99343.22
2023-02-25T12:48:28.895Z,99342.88
2023-02-25T12:51:29.097Z,99337.66
2023-02-25T12:54:26.908Z,99342.44
2023-02-25T12:57:35.443Z,99332.59
2023-02-25T13:00:09.443Z,99316.63
2023-02-25T13:02:55.740Z,99304.00
2023-02-25T13:05:49.831Z,99297.59
2023-02-25T13:08:52.943Z,99295.88
2023-02-25T13:11:25.871Z,99294.19
2023-02-25T13:14:24.654Z,99285.75
2023-02-25T13:17:37.879Z,99283.84
2023-02-25T13:20:30.091Z,99293.63
2023-02-25T13:23:07.097Z,99290.66
2023-02-25T13:26:20.945Z,99298.50
2023-02-25T13:29:24.344Z,99294.19
2023-02-25T13:32:27.306Z,99286.06
2023-02-25T13:35:29.037Z,99273.66
2023-02-25T13:38:20.693Z,99267.38
2023-02-25T13:40:56.678Z,99256.63
2023-02-25T13:43:25.640Z,99235.06
2023-02-25T13:46:14.491Z,99228.13
2023-02-25T13:49:20.551Z,99211.78
2023-02-25T13:52:17.620Z,99202.81
2023-02-25T13:55:41.157Z,99208.06
2023-02-25T13:59:00.598Z,99205.84
2023-02-25T14:02:25.093Z,99199.59
2023-02-25T14:05:23.978Z,99199.13
2023-02-25T14:08:13.754Z,99190.19
2023-02-25T14:10:49.974Z,99185.31
2023-02-25T14:13:25.873Z,99178.50
2023-02-25T14:16:22.874Z,99184.81
2023-02-25T14:19:02.520Z,99169.28
2023-02-25T14:21:50.608Z,99175.66
2023-02-25T14:25:14.406Z,99175.94
2023-02-25T14:28:19.359Z,99178.31
2023-02-25T14:30:58.902Z,99171.47
2023-02-25T14:33:34.685Z,99181.81
2023-02-25T14:36:16.566Z,99187.34
2023-02-25T14:39:24.936Z,99177.63
2023-02-25T14:42:35.424Z,99166.94
2023-02-25T14:45:05.966Z,99176.03
2023-02-25T14:47:42.224Z,99179.25
2023-02-25T14:50:32.246Z,99185.38
2023-02-25T14:53:15.142Z,99199.66
2023-02-25T14:55:59.226Z,99207.88
2023-02-25T14:58:53.386Z,99215.97
2023-02-25T15:01:51.287Z,99239.50
2023-02-25T15:04:48.679Z,99278.56
2023-02-25T15:07:36.682Z,99312.09
2023-02-25T15:10:13.721Z,99341.50
2023-02-25T15:13:31.469Z,99364.22
2023-02-25T15:16:37.195Z,99375.31
2023-02-25T15:19:19.683Z,99374.78
2023-02-25T15:21:49.201Z,99374.94
2023-02-25T15:24:42.426Z,99371.69
2023-02-25T15:27:52.227Z,99380.31
2023-02-25T15:30:25.821Z,99380.16
2023-02-25T15:33:24.685Z,99410.28
2023-02-25T15:36:00.421Z,99449.22
2023-02-25T15:38:41.177Z,99472.53
2023-02-25T15:41:26.842Z,99475.19
2023-02-25T15:43:58.371Z,99469.31
2023-02-25T15:46:48.484Z,99469.09
2023-02-25T15:49:35.248Z,99482.31
2023-02-25T15:52:05.520Z,99481.22
2023-02-25T15:54:32.369Z,99490.81
2023-02-25T15:57:36.121Z,99485.53
2023-02-25T16:00:04.897Z,99493.41
2023-02-25T16:02:38.579Z,99497.34
2023-02-25T16:05:08.474Z,99548.97
2023-02-25T16:07:39.898Z,99567.59
2023-02-25T16:10:18.523Z,99580.56
2023-02-25T16:12:50.674Z,99585.25
2023-02-25T16:15:37.364Z,99581.06
2023-02-25T16:18:17.788Z,99579.13
2023-02-25T16:20:52.198Z,99590.25
2023-02-25T16:23:19.717Z,99580.78
2023-02-25T16:26:05.563Z,99580.44
2023-02-25T16:28:44.256Z,99562.06
2023-02-25T16:32:00.532Z,99567.91
2023-02-25T16:35:03.846Z,99582.78
2023-02-25T16:38:05.108Z,99584.53
2023-02-25T16:40:41.436Z,99589.19
2023-02-25T16:43:17.491Z,99590.25
2023-02-25T16:45:59.478Z,99597.41
2023-02-25T16:48:35.168Z,99591.44
2023-02-25T16:51:20.668Z,99585.75
2023-02-25T16:53:51.846Z,99584.19
2023-02-25T16:56:24.247Z,99576.22
2023-02-25T16:59:14.190Z,99591.47
2023-02-25T17:01:58.603Z,99606.19
2023-02-25T17:04:37.288Z,99608.50
2023-02-25T17:07:23.070Z,99610.81
2023-02-25T17:09:55.537Z,99612.66
2023-02-25T17:12:30.851Z,99623.53
2023-02-25T17:15:01.273Z,99631.16
2023-02-25T17:17:40.251Z,99629.78
2023-02-25T17:20:18.107Z,99617.03
2023-02-25T17:22:45.970Z,99614.25
2023-02-25T17:25:18.319Z,99618.91
2023-02-25T17:27:49.348Z,99620.88
2023-02-25T17:30:35.496Z,99623.00
2023-02-25T17:33:03.127Z,99634.69
2023-02-25T17:35:31.564Z,99651.06
2023-02-25T17:37:58.689Z,99646.75
2023-02-25T17:40:28.744Z,99665.69
2023-02-25T17:43:16.820Z,99663.69
2023-02-25T17:46:01.401Z,99662.06
2023-02-25T17:48:32.818Z,99669.78
2023-02-25T17:51:08.430Z,99673.75
2023-02-25T17:53:49.513Z,99678.66
2023-02-25T17:56:25.213Z,99681.19
2023-02-25T17:58:59.324Z,99676.28
2023-02-25T18:01:30.957Z,99675.91
2023-02-25T18:04:06.246Z,99681.88
2023-02-25T18:06:41.089Z,99675.19
2023-02-25T18:09:37.319Z,99683.16
2023-02-25T18:12:08.638Z,99696.34
2023-02-25T18:14:40.194Z,99700.16
2023-02-25T18:17:40.449Z,99702.31
2023-02-25T18:20:38.206Z,99693.41
2023-02-25T18:23:07.972Z,99706.81
2023-02-25T18:25:44.379Z,99713.47
2023-02-25T18:28:14.407Z,99730.41
2023-02-25T18:30:41.513Z,99741.50
2023-02-25T18:33:11.636Z,99745.19
2023-02-25T18:35:41.916Z,99751.16
2023-02-25T18:38:18.206Z,99735.47
2023-02-25T18:40:46.112Z,99735.81
2023-02-25T18:43:20.621Z,99740.25
2023-02-25T18:45:48.292Z,99734.88
2023-02-25T18:48:15.794Z,99736.72
2023-02-25T18:50:44.599Z,99739.81
2023-02-25T18:53:18.200Z,99736.09
2023-02-25T18:55:45.422Z,99736.31
2023-02-25T18:58:17.775Z,99738.22
2023-02-25T19:00:48.398Z,99744.97
2023-02-25T19:03:32.233Z,99755.66
2023-02-25T19:06:00.087Z,99755.88
2023-02-25T19:08:27.066Z,99771.16
2023-02-25T19:10:54.419Z,99771.56
2023-02-25T19:13:37.115Z,99773.13
2023-02-25T19:16:05.237Z,99768.63
2023-02-25T19:18:32.164Z,99763.44
2023-02-25T19:21:00.375Z,99771.88
2023-02-25T19:23:27.327Z,99779.97
2023-02-25T19:25:58.824Z,99784.13
2023-02-25T19:28:26.891Z,99784.34
2023-02-25T19:30:55.564Z,99793.31
2023-02-25T19:33:22.661Z,99788.06
2023-02-25T19:35:52.074Z,99791.00
2023-02-25T19:38:20.613Z,99788.63
2023-02-25T19:40:48.486Z,99785.31
2023-02-25T19:43:17.628Z,99778.47
2023-02-25T19:45:44.744Z,99777.78
2023-02-25T19:48:11.956Z,99773.41
2023-02-25T19:50:41.076Z,99768.19
2023-02-25T19:53:08.576Z,99764.91
2023-02-25T19:55:35.707Z,99769.31
2023-02-25T19:58:02.673Z,99763.75
2023-02-25T20:00:29.600Z,99767.16
2023-02-25T20:02:56.539Z,99776.97
2023-02-25T20:05:24.690Z,99770.03
2023-02-25T20:07:52.228Z,99766.81
2023-02-25T20:10:20.049Z,99754.09
2023-02-25T20:12:50.486Z,99746.41
2023-02-25T20:15:18.775Z,99756.06
2023-02-25T20:17:47.401Z,99739.63
2023-02-25T20:20:16.074Z,99740.06
2023-02-25T20:22:43.814Z,99744.19
2023-02-25T20:25:13.404Z,99745.31
2023-02-25T20:27:43.458Z,99742.53
2023-02-25T20:30:16.882Z,99738.13
2023-02-25T20:32:45.193Z,99725.06
2023-02-25T20:35:18.384Z,99720.88
2023-02-25T20:38:09.124Z,99714.09
2023-02-25T20:40:36.179Z,99717.09
2023-02-25T20:43:03.256Z,99725.09
2023-02-25T20:45:30.744Z,99711.75
2023-02-25T20:47:57.744Z,99708.16
2023-02-25T20:50:28.344Z,99709.50
2023-02-25T20:52:55.941Z,99704.16
2023-02-25T20:55:23.412Z,99700.91
2023-02-25T20:57:50.560Z,99701.94
2023-02-25T21:00:20.492Z,99696.38
2023-02-25T21:02:47.479Z,99694.13
2023-02-25T21:05:14.548Z,99707.03
2023-02-25T21:07:41.592Z,99714.59
2023-02-25T21:10:10.403Z,99708.13
2023-02-25T21:12:37.494Z,99719.97
2023-02-25T21:15:04.876Z,99719.25
2023-02-25T21:17:31.801Z,99738.03
2023-02-25T21:20:01.936Z,99738.66
2023-02-25T21:22:29.039Z,99754.22
2023-02-25T21:24:57.610Z,99754.28
2023-02-25T21:27:25.249Z,99762.38
2023-02-25T21:29:52.105Z,99757.06
2023-02-25T21:32:19.095Z,99759.91
2023-02-25T21:34:46.009Z,99771.78
2023-02-25T21:37:13.238Z,99771.56
2023-02-25T21:39:43.436Z,99785.63
2023-02-25T21:42:10.369Z,99784.19
2023-02-25T21:44:37.245Z,99788.00
2023-02-25T21:47:04.279Z,99803.94
2023-02-25T21:49:32.622Z,99802.69
2023-02-25T21:51:59.609Z,99796.75
2023-02-25T21:54:26.827Z,99788.09
2023-02-25T21:56:53.725Z,99793.94
2023-02-25T21:59:20.851Z,99799.97
2023-02-25T22:01:47.960Z,99808.22
2023-02-25T22:04:16.068Z,99806.66
2023-02-25T22:06:46.920Z,99804.75
2023-02-25T22:09:13.969Z,99799.72
2023-02-25T22:11:40.994Z,99798.06
2023-02-25T22:14:09.171Z,99816.25
2023-02-25T22:16:37.839Z,99813.88
2023-02-25T22:19:05.762Z,99818.78
2023-02-25T22:21:36.035Z,99831.25
2023-02-25T22:24:05.452Z,99840.81
2023-02-25T22:26:36.162Z,99860.13
2023-02-25T22:29:09.426Z,99859.41
2023-02-25T22:31:37.723Z,99867.34
2023-02-25T22:34:06.213Z,99868.34
2023-02-25T22:36:33.205Z,99861.69
2023-02-25T22:39:04.149Z,99860.28
2023-02-25T22:41:31.335Z,99857.66
2023-02-25T22:43:58.878Z,99856.69
2023-02-25T22:46:34.381Z,99857.66
2023-02-25T22:49:02.664Z,99859.81
2023-02-25T22:51:42.895Z,99853.28
2023-02-25T22:54:11.473Z,99855.78
2023-02-25T22:56:39.094Z,99867.63
2023-02-25T22:59:07.268Z,99862.91
2023-02-25T23:01:34.601Z,99865.94
2023-02-25T23:04:02.222Z,99866.84
2023-02-25T23:06:42.988Z,99869.16
2023-02-25T23:09:12.895Z,99873.88
2023-02-25T23:11:42.168Z,99869.81
2023-02-25T23:14:09.779Z,99869.44
2023-02-25T23:16:40.862Z,99865.59
2023-02-25T23:19:15.913Z,99869.06
2023-02-25T23:21:44.664Z,99870.50
2023-02-25T23:24:18.483Z,99874.50
2023-02-25T23:26:47.618Z,99885.69
2023-02-25T23:29:15.635Z,99888.44
2023-02-25T23:31:46.913Z,99894.97
2023-02-25T23:34:20.630Z,99899.16
2023-02-25T23:36:48.335Z,99900.63
2023-02-25T23:39:20.234Z,99902.63
2023-02-25T23:44:15.728Z,99894.19
2023-02-25T23:46:43.400Z,99905.31
2023-02-25T23:49:15.641Z,99903.44
2023-02-25T23:51:45.644Z,99907.34
2023-02-25T23:54:17.420Z,99907.81
2023-02-25T23:56:45.129Z,99904.44
2023-02-25T23:59:13.422Z,99906.75
